createdAt,value
2022-11-05T00:00:26.870Z,96.64
2022-11-05T00:03:33.797Z,96.64
2022-11-05T00:06:40.760Z,96.53
2022-11-05T00:09:47.730Z,96.33
2022-11-05T00:12:54.802Z,96.22
2022-11-05T00:16:01.762Z,96.33
2022-11-05T00:19:08.702Z,96.47
2022-11-05T00:22:16.200Z,96.78
2022-11-05T00:25:23.285Z,97.03
2022-11-05T00:28:30.284Z,97.24
2022-11-05T00:31:31.146Z,97.44
2022-11-05T00:34:37.693Z,97.65
2022-11-05T00:37:49.773Z,98.00
2022-11-05T00:40:46.887Z,98.00
2022-11-05T00:43:53.420Z,98.11
2022-11-05T00:47:00.807Z,98.32
2022-11-05T00:50:07.450Z,98.57
2022-11-05T00:53:14.786Z,98.67
2022-11-05T00:56:22.089Z,98.77
2022-11-05T00:59:30.470Z,98.97
2022-11-05T01:02:38.872Z,99.13
2022-11-05T01:05:46.301Z,99.33
2022-11-05T01:08:53.273Z,99.43
2022-11-05T01:12:00.262Z,99.64
2022-11-05T01:15:07.236Z,99.64
2022-11-05T01:18:14.127Z,99.64
2022-11-05T01:21:21.194Z,99.85
2022-11-05T01:24:28.145Z,99.90
2022-11-05T01:27:35.044Z,99.99
2022-11-05T01:30:42.316Z,99.99
2022-11-05T01:33:49.140Z,99.99
2022-11-05T01:36:56.066Z,99.99
2022-11-05T01:40:02.857Z,99.99
2022-11-05T01:43:05.040Z,99.99
2022-11-05T01:46:11.878Z,99.99
2022-11-05T01:49:18.610Z,99.99
2022-11-05T01:52:25.979Z,99.99
2022-11-05T01:55:32.849Z,99.99
2022-11-05T01:58:39.721Z,99.99
2022-11-05T02:01:46.916Z,99.99
2022-11-05T02:04:53.424Z,99.99
2022-11-05T02:08:00.761Z,99.99
2022-11-05T02:11:08.157Z,99.99
2022-11-05T02:14:14.646Z,99.99
2022-11-05T02:17:21.802Z,99.99
2022-11-05T02:20:28.655Z,99.99
2022-11-05T02:23:35.404Z,99.99
2022-11-05T02:26:42.375Z,99.99
2022-11-05T02:29:48.832Z,99.99
2022-11-05T02:32:55.978Z,99.99
2022-11-05T02:36:03.243Z,99.99
2022-11-05T02:39:09.748Z,99.99
2022-11-05T02:42:16.907Z,99.92
2022-11-05T02:45:23.779Z,99.99
2022-11-05T02:48:30.551Z,99.99
2022-11-05T02:51:37.707Z,99.96
2022-11-05T02:54:44.565Z,99.99
2022-11-05T02:57:51.311Z,99.99
2022-11-05T03:00:58.538Z,99.99
2022-11-05T03:04:05.261Z,99.99
2022-11-05T03:07:12.330Z,99.99
2022-11-05T03:10:19.251Z,99.99
2022-11-05T03:13:26.491Z,99.91
2022-11-05T03:16:32.852Z,99.74
2022-11-05T03:19:40.033Z,99.74
2022-11-05T03:22:46.657Z,99.64
2022-11-05T03:25:53.084Z,99.74
2022-11-05T03:29:00.296Z,99.69
2022-11-05T03:32:07.135Z,99.85
2022-11-05T03:35:13.991Z,99.79
2022-11-05T03:38:21.283Z,99.99
2022-11-05T03:41:28.097Z,99.99
2022-11-05T03:44:35.086Z,99.99
2022-11-05T03:47:42.486Z,99.99
2022-11-05T03:50:48.917Z,99.99
2022-11-05T03:53:56.117Z,99.99
2022-11-05T03:57:03.240Z,99.99
2022-11-05T04:00:09.709Z,99.99
2022-11-05T04:03:16.945Z,99.99
2022-11-05T04:06:23.697Z,99.99
2022-11-05T04:09:30.478Z,99.99
2022-11-05T04:12:37.520Z,99.99
2022-11-05T04:15:44.310Z,99.99
2022-11-05T04:18:50.931Z,99.99
2022-11-05T04:21:58.241Z,99.99
2022-11-05T04:25:05.005Z,99.99
2022-11-05T04:28:11.823Z,99.99
2022-11-05T04:31:18.582Z,99.99
2022-11-05T04:34:25.559Z,99.99
2022-11-05T04:37:32.416Z,99.99
2022-11-05T04:40:39.536Z,99.99
2022-11-05T04:43:46.383Z,99.99
2022-11-05T04:46:52.872Z,99.99
2022-11-05T04:50:00.100Z,99.88
2022-11-05T04:53:06.471Z,99.78
2022-11-05T04:56:13.649Z,99.99
2022-11-05T04:59:20.728Z,99.78
2022-11-05T05:02:27.100Z,99.62
2022-11-05T05:05:34.108Z,99.62
2022-11-05T05:08:40.887Z,99.52
2022-11-05T05:11:47.779Z,99.46
2022-11-05T05:14:54.970Z,99.46
2022-11-05T05:18:01.873Z,99.35
2022-11-05T05:21:09.340Z,99.35
2022-11-05T05:24:16.700Z,99.25
2022-11-05T05:27:23.590Z,99.51
2022-11-05T05:30:30.494Z,99.61
2022-11-05T05:33:37.321Z,99.66
2022-11-05T05:36:44.331Z,99.87
2022-11-05T05:39:51.141Z,99.87
2022-11-05T05:42:58.075Z,99.77
2022-11-05T05:46:04.971Z,99.87
2022-11-05T05:49:12.650Z,99.71
2022-11-05T05:52:19.771Z,99.61
2022-11-05T05:55:26.543Z,99.61
2022-11-05T05:58:33.384Z,99.82
2022-11-05T06:01:40.804Z,99.82
2022-11-05T06:04:47.377Z,99.82
2022-11-05T06:07:54.496Z,99.82
2022-11-05T06:11:01.765Z,99.92
2022-11-05T06:14:08.337Z,99.82
2022-11-05T06:17:15.393Z,99.82
2022-11-05T06:20:22.678Z,99.61
2022-11-05T06:23:29.189Z,99.09
2022-11-05T06:26:36.315Z,98.99
2022-11-05T06:29:43.089Z,99.40
2022-11-05T06:32:50.060Z,99.30
2022-11-05T06:35:56.979Z,99.19
2022-11-05T06:39:03.698Z,99.24
2022-11-05T06:42:19.084Z,99.44
2022-11-05T06:45:14.450Z,99.34
2022-11-05T06:48:20.899Z,99.44
2022-11-05T06:51:27.893Z,99.55
2022-11-05T06:54:34.640Z,99.55
2022-11-05T06:57:41.422Z,99.55
2022-11-05T07:00:48.539Z,99.61
2022-11-05T07:03:55.929Z,99.40
2022-11-05T07:07:02.883Z,99.30
2022-11-05T07:10:09.506Z,99.40
2022-11-05T07:13:17.525Z,99.46
2022-11-05T07:16:24.923Z,99.56
2022-11-05T07:19:31.746Z,99.72
2022-11-05T07:22:40.824Z,99.99
2022-11-05T07:25:47.260Z,99.99
2022-11-05T07:28:54.775Z,99.99
2022-11-05T07:32:01.785Z,99.99
2022-11-05T07:35:08.262Z,99.99
2022-11-05T07:38:15.602Z,99.99
2022-11-05T07:41:22.688Z,99.99
2022-11-05T07:44:29.709Z,99.99
2022-11-05T07:47:36.845Z,99.99
2022-11-05T07:50:43.917Z,99.99
2022-11-05T07:53:50.800Z,99.99
2022-11-05T07:56:57.809Z,99.99
2022-11-05T08:00:04.659Z,99.99
2022-11-05T08:03:12.198Z,99.99
2022-11-05T08:06:19.525Z,99.99
2022-11-05T08:09:26.819Z,99.99
2022-11-05T08:12:33.662Z,99.99
2022-11-05T08:15:40.503Z,99.99
2022-11-05T08:18:47.971Z,99.99
2022-11-05T08:21:54.613Z,99.99
2022-11-05T08:25:06.762Z,99.99
2022-11-05T08:28:03.468Z,99.99
2022-11-05T08:31:09.969Z,99.99
2022-11-05T08:34:17.215Z,99.99
2022-11-05T08:37:23.756Z,99.99
2022-11-05T08:40:30.236Z,99.99
2022-11-05T08:43:37.258Z,99.99
2022-11-05T08:46:43.716Z,99.99
2022-11-05T08:49:50.897Z,99.99
2022-11-05T08:52:58.296Z,99.99
2022-11-05T08:56:05.365Z,99.99
2022-11-05T08:59:12.400Z,99.99
2022-11-05T09:02:19.455Z,99.93
2022-11-05T09:05:26.211Z,99.51
2022-11-05T09:08:33.591Z,99.10
2022-11-05T09:12:09.868Z,98.59
2022-11-05T09:14:44.613Z,98.03
2022-11-05T09:17:51.644Z,98.03
2022-11-05T09:20:58.569Z,97.57
2022-11-05T09:24:05.225Z,97.42
2022-11-05T09:27:12.182Z,97.28
2022-11-05T09:30:19.453Z,96.35
2022-11-05T09:33:26.363Z,95.79
2022-11-05T09:36:33.227Z,95.54
2022-11-05T09:39:40.905Z,94.78
2022-11-05T09:42:48.407Z,92.68
2022-11-05T09:45:55.267Z,92.06
2022-11-05T09:49:02.098Z,92.47
2022-11-05T09:52:08.601Z,92.16
2022-11-05T09:55:15.413Z,92.27
2022-11-05T09:58:27.571Z,92.16
2022-11-05T10:01:24.799Z,91.44
2022-11-05T10:04:31.852Z,91.61
2022-11-05T10:07:38.597Z,91.20
2022-11-05T10:10:45.453Z,90.99
2022-11-05T10:13:52.535Z,90.69
2022-11-05T10:16:59.630Z,90.73
2022-11-05T10:20:06.594Z,91.14
2022-11-05T10:23:14.033Z,90.32
2022-11-05T10:26:21.693Z,90.11
2022-11-05T10:29:28.293Z,90.32
2022-11-05T10:32:35.337Z,89.97
2022-11-05T10:35:42.732Z,89.97
2022-11-05T10:38:49.643Z,90.13
2022-11-05T10:41:56.491Z,89.64
2022-11-05T10:45:03.919Z,88.17
2022-11-05T10:48:10.447Z,87.41
2022-11-05T10:51:17.616Z,85.02
2022-11-05T10:54:24.937Z,84.55
2022-11-05T10:57:31.534Z,84.71
2022-11-05T11:00:38.880Z,84.71
2022-11-05T11:03:45.659Z,84.20
2022-11-05T11:06:52.565Z,85.69
2022-11-05T11:09:59.809Z,83.54
2022-11-05T11:13:06.547Z,83.75
2022-11-05T11:16:13.467Z,84.26
2022-11-05T11:19:20.267Z,83.04
2022-11-05T11:22:30.309Z,83.85
2022-11-05T11:25:36.979Z,82.05
2022-11-05T11:28:43.803Z,82.26
2022-11-05T11:31:51.199Z,82.67
2022-11-05T11:34:57.741Z,82.36
2022-11-05T11:38:05.162Z,81.51
2022-11-05T11:41:11.922Z,81.65
2022-11-05T11:44:18.686Z,81.81
2022-11-05T11:47:25.794Z,80.69
2022-11-05T11:50:32.668Z,81.16
2022-11-05T11:53:39.709Z,80.82
2022-11-05T11:56:46.807Z,80.07
2022-11-05T12:00:08.359Z,79.21
2022-11-05T12:03:01.929Z,77.92
2022-11-05T12:05:58.654Z,78.94
2022-11-05T12:09:06.907Z,78.47
2022-11-05T12:12:14.662Z,78.06
2022-11-05T12:15:21.980Z,77.41
2022-11-05T12:18:28.373Z,76.59
2022-11-05T12:21:52.069Z,77.07
2022-11-05T12:24:38.934Z,78.87
2022-11-05T12:27:45.974Z,77.06
2022-11-05T12:30:53.284Z,72.89
2022-11-05T12:33:59.758Z,74.11
2022-11-05T12:37:06.985Z,73.64
2022-11-05T12:40:14.061Z,73.23
2022-11-05T12:43:20.587Z,73.77
2022-11-05T12:46:27.969Z,74.96
2022-11-05T12:49:34.877Z,74.79
2022-11-05T12:52:41.843Z,74.93
2022-11-05T12:55:49.024Z,75.07
2022-11-05T12:58:55.883Z,75.41
2022-11-05T13:02:02.955Z,76.03
2022-11-05T13:05:09.857Z,75.96
2022-11-05T13:08:17.214Z,76.26
2022-11-05T13:11:24.077Z,76.26
2022-11-05T13:14:30.994Z,75.45
2022-11-05T13:17:38.285Z,74.93
2022-11-05T13:20:45.099Z,74.39
2022-11-05T13:23:51.835Z,74.18
2022-11-05T13:27:00.158Z,74.43
2022-11-05T13:30:06.691Z,74.63
2022-11-05T13:33:14.344Z,75.14
2022-11-05T13:36:21.557Z,74.63
2022-11-05T13:39:28.196Z,75.04
2022-11-05T13:42:36.032Z,74.43
2022-11-05T13:45:42.915Z,73.81
2022-11-05T13:48:49.847Z,73.40
2022-11-05T13:51:56.833Z,73.16
2022-11-05T13:55:03.865Z,72.55
2022-11-05T13:58:10.933Z,72.86
2022-11-05T14:01:18.059Z,72.96
2022-11-05T14:04:25.135Z,72.65
2022-11-05T14:07:31.721Z,73.27
2022-11-05T14:10:39.129Z,73.88
2022-11-05T14:13:46.436Z,74.59
2022-11-05T14:16:52.982Z,75.34
2022-11-05T14:20:00.425Z,75.04
2022-11-05T14:23:09.809Z,75.14
2022-11-05T14:26:16.654Z,75.14
2022-11-05T14:29:23.788Z,75.14
2022-11-05T14:32:30.903Z,74.93
2022-11-05T14:35:38.158Z,74.84
2022-11-05T14:38:45.094Z,75.27
2022-11-05T14:41:52.496Z,75.59
2022-11-05T14:44:59.616Z,75.48
2022-11-05T14:48:06.489Z,75.79
2022-11-05T14:51:13.971Z,75.99
2022-11-05T14:54:20.663Z,75.72
2022-11-05T14:57:28.092Z,76.64
2022-11-05T15:00:35.138Z,76.47
2022-11-05T15:03:46.464Z,76.78
2022-11-05T15:06:43.634Z,77.53
2022-11-05T15:09:50.817Z,77.33
2022-11-05T15:12:57.367Z,77.87
2022-11-05T15:16:04.636Z,78.70
2022-11-05T15:19:11.104Z,79.14
2022-11-05T15:22:18.496Z,79.59
2022-11-05T15:25:25.537Z,80.00
2022-11-05T15:28:32.362Z,80.65
2022-11-05T15:31:39.329Z,81.48
2022-11-05T15:34:46.224Z,82.23
2022-11-05T15:37:58.779Z,83.29
2022-11-05T15:40:57.181Z,83.81
2022-11-05T15:44:04.165Z,84.26
2022-11-05T15:47:11.460Z,84.91
2022-11-05T15:50:18.754Z,86.08
2022-11-05T15:53:47.413Z,86.50
2022-11-05T15:56:29.796Z,87.15
2022-11-05T15:59:36.520Z,87.26
2022-11-05T16:02:43.956Z,87.71
2022-11-05T16:05:50.778Z,88.12
2022-11-05T16:08:57.416Z,88.99
2022-11-05T16:12:04.680Z,89.44
2022-11-05T16:15:11.298Z,90.37
2022-11-05T16:18:18.675Z,90.00
2022-11-05T16:21:25.989Z,90.16
2022-11-05T16:24:32.480Z,90.67
2022-11-05T16:27:39.862Z,90.88
2022-11-05T16:30:46.801Z,90.88
2022-11-05T16:33:53.422Z,90.88
2022-11-05T16:37:00.616Z,90.99
2022-11-05T16:40:07.563Z,91.19
2022-11-05T16:43:14.404Z,91.30
2022-11-05T16:46:20.944Z,91.30
2022-11-05T16:49:28.075Z,91.50
2022-11-05T16:52:34.653Z,91.60
2022-11-05T16:55:41.597Z,91.60
2022-11-05T16:58:48.959Z,91.81
2022-11-05T17:01:56.128Z,91.60
2022-11-05T17:05:03.378Z,91.50
2022-11-05T17:08:10.942Z,91.40
2022-11-05T17:11:17.648Z,91.40
2022-11-05T17:14:28.810Z,91.40
2022-11-05T17:17:24.892Z,91.19
2022-11-05T17:20:38.264Z,90.99
2022-11-05T17:23:35.809Z,90.78
2022-11-05T17:26:42.333Z,90.37
2022-11-05T17:29:49.604Z,90.37
2022-11-05T17:32:56.696Z,90.47
2022-11-05T17:36:03.259Z,90.37
2022-11-05T17:39:10.635Z,90.01
2022-11-05T17:42:17.734Z,89.81
2022-11-05T17:45:24.234Z,89.71
2022-11-05T17:48:31.464Z,90.26
2022-11-05T17:51:38.248Z,90.16
2022-11-05T17:54:45.205Z,90.16
2022-11-05T17:57:52.466Z,90.01
2022-11-05T18:00:59.544Z,90.12
2022-11-05T18:04:08.850Z,89.91
2022-11-05T18:07:16.305Z,89.91
2022-11-05T18:10:23.129Z,89.81
2022-11-05T18:13:30.049Z,89.29
2022-11-05T18:16:37.003Z,89.29
2022-11-05T18:19:44.050Z,89.09
2022-11-05T18:22:50.892Z,89.09
2022-11-05T18:25:57.806Z,88.89
2022-11-05T18:29:05.084Z,89.03
2022-11-05T18:32:11.953Z,89.34
2022-11-05T18:35:18.774Z,89.13
2022-11-05T18:38:25.534Z,88.92
2022-11-05T18:41:32.025Z,88.62
2022-11-05T18:44:39.682Z,88.72
2022-11-05T18:47:46.846Z,88.82
2022-11-05T18:50:56.523Z,88.82
2022-11-05T18:53:56.407Z,88.82
2022-11-05T18:57:03.585Z,88.92
2022-11-05T19:00:10.132Z,88.82
2022-11-05T19:03:17.319Z,88.62
2022-11-05T19:06:24.169Z,88.51
2022-11-05T19:09:31.132Z,88.72
2022-11-05T19:12:38.502Z,88.72
2022-11-05T19:15:45.423Z,88.86
2022-11-05T19:18:52.431Z,88.96
2022-11-05T19:21:59.388Z,88.92
2022-11-05T19:25:06.624Z,88.76
2022-11-05T19:28:13.957Z,88.65
2022-11-05T19:31:21.114Z,88.86
2022-11-05T19:34:28.235Z,88.86
2022-11-05T19:37:35.277Z,88.86
2022-11-05T19:40:42.386Z,88.86
2022-11-05T19:43:48.946Z,88.96
2022-11-05T19:46:56.415Z,89.07
2022-11-05T19:50:04.047Z,89.11
2022-11-05T19:53:10.987Z,89.32
2022-11-05T19:56:17.868Z,89.22
2022-11-05T19:59:25.049Z,89.32
2022-11-05T20:02:31.982Z,89.32
2022-11-05T20:05:39.170Z,89.62
2022-11-05T20:09:15.394Z,89.62
2022-11-05T20:11:50.112Z,89.73
2022-11-05T20:14:56.660Z,89.67
2022-11-05T20:18:03.571Z,89.56
2022-11-05T20:21:10.162Z,89.77
2022-11-05T20:24:23.337Z,90.12
2022-11-05T20:27:20.624Z,90.43
2022-11-05T20:30:27.262Z,90.53
2022-11-05T20:33:34.251Z,90.84
2022-11-05T20:36:41.124Z,90.74
2022-11-05T20:39:47.968Z,90.74
2022-11-05T20:42:55.153Z,90.84
2022-11-05T20:46:01.895Z,90.74
2022-11-05T20:49:08.796Z,90.49
2022-11-05T20:52:16.058Z,90.19
2022-11-05T20:55:22.780Z,89.87
2022-11-05T20:58:29.468Z,89.67
2022-11-05T21:01:36.790Z,89.46
2022-11-05T21:04:43.621Z,89.05
2022-11-05T21:07:50.432Z,89.05
2022-11-05T21:10:57.364Z,89.15
2022-11-05T21:14:04.549Z,89.50
2022-11-05T21:17:11.429Z,89.61
2022-11-05T21:20:18.188Z,89.61
2022-11-05T21:23:24.991Z,89.81
2022-11-05T21:26:31.862Z,89.71
2022-11-05T21:29:38.838Z,89.50
2022-11-05T21:32:45.573Z,89.61
2022-11-05T21:35:52.132Z,89.36
2022-11-05T21:38:59.395Z,89.25
2022-11-05T21:42:06.480Z,89.05
2022-11-05T21:45:12.885Z,88.95
2022-11-05T21:48:20.052Z,88.95
2022-11-05T21:51:27.395Z,89.36
2022-11-05T21:54:33.794Z,89.77
2022-11-05T21:57:40.899Z,89.67
2022-11-05T22:00:47.657Z,89.87
2022-11-05T22:03:57.695Z,89.87
2022-11-05T22:06:57.530Z,89.98
2022-11-05T22:10:04.416Z,89.98
2022-11-05T22:13:11.219Z,90.08
2022-11-05T22:16:18.059Z,89.83
2022-11-05T22:19:25.270Z,89.87
2022-11-05T22:22:32.232Z,89.94
2022-11-05T22:25:39.156Z,89.94
2022-11-05T22:28:46.151Z,90.14
2022-11-05T22:31:53.113Z,90.25
2022-11-05T22:34:59.983Z,90.45
2022-11-05T22:38:06.846Z,90.45
2022-11-05T22:41:13.655Z,90.66
2022-11-05T22:44:20.895Z,90.55
2022-11-05T22:47:27.747Z,90.51
2022-11-05T22:50:34.914Z,90.61
2022-11-05T22:53:41.849Z,90.51
2022-11-05T22:56:48.757Z,90.51
2022-11-05T22:59:55.797Z,90.41
2022-11-05T23:03:03.450Z,90.20
2022-11-05T23:06:10.032Z,90.31
2022-11-05T23:09:17.268Z,90.37
2022-11-05T23:12:24.315Z,90.26
2022-11-05T23:15:30.772Z,90.06
2022-11-05T23:18:38.110Z,89.85
2022-11-05T23:21:44.978Z,89.71
2022-11-05T23:24:51.852Z,89.61
2022-11-05T23:27:59.022Z,89.54
2022-11-05T23:31:05.773Z,89.54
2022-11-05T23:34:12.506Z,89.23
2022-11-05T23:37:19.240Z,89.23
2022-11-05T23:40:26.402Z,89.54
2022-11-05T23:43:33.363Z,89.48
2022-11-05T23:46:40.218Z,90.10
2022-11-05T23:49:47.286Z,90.51
2022-11-05T23:52:54.146Z,90.66
2022-11-05T23:56:00.947Z,90.82
2022-11-05T23:59:08.137Z,90.82
